Kipling, North Carolina
Current Conditions -  °F | °C
As of 7:15 AM on Monday 26 Jan 2015 (Local Time) from KHRJ Reporting Station
Light Rain Light Rain  
Wind Chill: 40°   Ceiling: 4500
Heat Index: 40°   Visibility: 7mi
Dew Point: 40°   Wind: 0mph
Humidity: 99%   Direction: NA
Pressure: 29.7"   Gusts: NA
Location:  35.48°N, 78.82°W
Report Text: KHRJ 261215Z AUTO 00000KT 7SM -RA BKN045 BKN055 OVC070 05/04 A2970 RMK AO2 T00460044
Loading
Personal Weather Stations






























Interactive Weather Map New forecast layout! Learn more

10-Day Weather Forecast

Advertisements
Track Severe Weather on mobile